الصفحة الرئيسية
METAR-TAF:

METAR-TAF

مطار :

Mc Elroy Airfield

Kremmling, كولورادو, الولايات المتحدة

دائرة عرض: 40-03-13N, خط طول: 106-22-08W, ارتفاع: 2259 متر

مراقبة الطقس الحالي

تاريخ ووقت الإصدار 24 دقيقة قبل الساعة 04:30UTC
رياح هادئة
درجة الحرارة 18°درجة مئوية
الرطوبة 45%
ضغط 1027 hPa
الرؤية: 16.1 كم
سماء صافية

METAR: K20V 180430Z AUTO 00000KT 10SM CLR 18/06 A3034 RMK AO2

زمن: 22:54 (04:54 UTC)


TAF: مفقودة

أرصاد الطقس والتوقعات من أكثر من 4000 مطار (تقارير الطقس للمطار METAR والتنبؤ بالطقس بالمطارTAF).

المحطات المتاحة هي النقط الصفراء والحمراء على الخريطة.

حرك المؤشر فوق النقطة لمعرفة اسم المحطة.

ثم انقر لمعرفة أرصاد وتوقعات الطقس.

لتغيير الخارطة: اضغط على الأزرار الخضراء مع رمز الصليب الأسود للتكبير. على الزر الأخضر مع شرطة للتصغير، أو على الأسهم الخضراء للخرائط المجاورة.


METAR-TAF: